sensor_id;sensor_type;location;lat;lon;timestamp;pressure;altitude;pressure_sealevel;temperature;humidity
43071;BME280;36278;47.952;21.714;2023-02-28T00:02:10;101438.16;;;0.02;74.23
43071;BME280;36278;47.952;21.714;2023-02-28T00:04:35;101434.66;;;0.03;74.46
43071;BME280;36278;47.952;21.714;2023-02-28T00:07:01;101430.47;;;-0.08;74.76
43071;BME280;36278;47.952;21.714;2023-02-28T00:09:26;101444.31;;;-0.06;74.80
43071;BME280;36278;47.952;21.714;2023-02-28T00:11:52;101450.38;;;-0.04;75.03
43071;BME280;36278;47.952;21.714;2023-02-28T00:14:18;101456.41;;;-0.02;74.55
43071;BME280;36278;47.952;21.714;2023-02-28T00:16:43;101428.81;;;-0.13;74.20
43071;BME280;36278;47.952;21.714;2023-02-28T00:19:08;101437.41;;;-0.07;74.29
43071;BME280;36278;47.952;21.714;2023-02-28T00:21:34;101458.03;;;0.07;74.39
43071;BME280;36278;47.952;21.714;2023-02-28T00:24:00;101457.16;;;0.07;73.61
43071;BME280;36278;47.952;21.714;2023-02-28T00:26:26;101467.69;;;0.01;74.28
43071;BME280;36278;47.952;21.714;2023-02-28T00:28:52;101469.31;;;0.08;74.79
43071;BME280;36278;47.952;21.714;2023-02-28T00:31:18;101472.66;;;0.17;73.90
43071;BME280;36278;47.952;21.714;2023-02-28T00:33:43;101479.53;;;0.21;73.35
43071;BME280;36278;47.952;21.714;2023-02-28T00:36:10;101482.88;;;0.31;73.95
43071;BME280;36278;47.952;21.714;2023-02-28T00:38:36;101475.81;;;0.38;73.91
43071;BME280;36278;47.952;21.714;2023-02-28T00:41:02;101476.63;;;0.43;73.21
43071;BME280;36278;47.952;21.714;2023-02-28T00:43:30;101466.88;;;0.54;72.27
43071;BME280;36278;47.952;21.714;2023-02-28T00:45:56;101469.56;;;0.49;72.76
43071;BME280;36278;47.952;21.714;2023-02-28T00:48:21;101471.03;;;0.64;72.43
43071;BME280;36278;47.952;21.714;2023-02-28T00:50:49;101477.88;;;0.71;72.06
43071;BME280;36278;47.952;21.714;2023-02-28T00:53:15;101466.59;;;0.71;71.56
43071;BME280;36278;47.952;21.714;2023-02-28T00:55:40;101475.41;;;0.65;71.24
43071;BME280;36278;47.952;21.714;2023-02-28T00:58:05;101473.66;;;0.64;71.93
43071;BME280;36278;47.952;21.714;2023-02-28T01:00:31;101464.09;;;0.66;71.87
43071;BME280;36278;47.952;21.714;2023-02-28T01:02:56;101462.34;;;0.67;72.21
43071;BME280;36278;47.952;21.714;2023-02-28T01:05:22;101461.28;;;0.77;71.86
43071;BME280;36278;47.952;21.714;2023-02-28T01:07:47;101462.72;;;0.95;70.33
43071;BME280;36278;47.952;21.714;2023-02-28T01:10:13;101466.25;;;0.92;71.88
43071;BME280;36278;47.952;21.714;2023-02-28T01:12:38;101464.63;;;0.85;70.62
43071;BME280;36278;47.952;21.714;2023-02-28T01:15:04;101473.38;;;0.82;71.36
43071;BME280;36278;47.952;21.714;2023-02-28T01:17:30;101480.22;;;0.88;71.36
43071;BME280;36278;47.952;21.714;2023-02-28T01:19:55;101471.66;;;0.80;71.02
43071;BME280;36278;47.952;21.714;2023-02-28T01:22:21;101474.22;;;0.83;71.49
43071;BME280;36278;47.952;21.714;2023-02-28T01:24:47;101479.97;;;1.02;70.78
43071;BME280;36278;47.952;21.714;2023-02-28T01:27:13;101479.06;;;1.04;70.49
43071;BME280;36278;47.952;21.714;2023-02-28T01:29:38;101485.06;;;1.09;70.04
43071;BME280;36278;47.952;21.714;2023-02-28T01:32:04;101479.81;;;1.11;69.90
43071;BME280;36278;47.952;21.714;2023-02-28T01:34:30;101480.63;;;1.15;70.49
43071;BME280;36278;47.952;21.714;2023-02-28T01:36:55;101483.22;;;1.16;70.06
43071;BME280;36278;47.952;21.714;2023-02-28T01:39:20;101486.84;;;1.07;69.14
43071;BME280;36278;47.952;21.714;2023-02-28T01:41:46;101483.22;;;1.16;69.44
43071;BME280;36278;47.952;21.714;2023-02-28T01:47:15;101484.81;;;1.22;69.51
43071;BME280;36278;47.952;21.714;2023-02-28T01:49:41;101478.78;;;1.20;69.55
43071;BME280;36278;47.952;21.714;2023-02-28T01:52:08;101489.38;;;1.10;69.69
43071;BME280;36278;47.952;21.714;2023-02-28T01:54:45;101486.69;;;1.17;69.53
43071;BME280;36278;47.952;21.714;2023-02-28T01:57:17;101479.75;;;1.16;69.94
43071;BME280;36278;47.952;21.714;2023-02-28T01:59:54;101485.16;;;1.03;70.15
43071;BME280;36278;47.952;21.714;2023-02-28T02:02:21;101486.91;;;1.03;70.57
43071;BME280;36278;47.952;21.714;2023-02-28T02:04:58;101479.31;;;0.89;70.84
43071;BME280;36278;47.952;21.714;2023-02-28T02:07:29;101483.38;;;1.05;70.26
43071;BME280;36278;47.952;21.714;2023-02-28T02:10:16;101477.53;;;0.93;70.83
43071;BME280;36278;47.952;21.714;2023-02-28T02:23:30;101501.47;;;1.16;69.98
43071;BME280;36278;47.952;21.714;2023-02-28T02:39:53;101509.34;;;1.15;70.07
43071;BME280;36278;47.952;21.714;2023-02-28T02:42:35;101510.38;;;1.06;70.05
43071;BME280;36278;47.952;21.714;2023-02-28T02:45:15;101510.22;;;1.12;69.64
43071;BME280;36278;47.952;21.714;2023-02-28T02:47:43;101507.03;;;0.96;70.44
43071;BME280;36278;47.952;21.714;2023-02-28T02:50:19;101522.78;;;0.92;71.35
43071;BME280;36278;47.952;21.714;2023-02-28T02:52:51;101516.66;;;0.93;71.44
43071;BME280;36278;47.952;21.714;2023-02-28T02:55:20;101505.22;;;1.01;70.92
43071;BME280;36278;47.952;21.714;2023-02-28T02:57:54;101518.25;;;1.01;70.91
43071;BME280;36278;47.952;21.714;2023-02-28T03:00:26;101519.81;;;1.11;70.67
43071;BME280;36278;47.952;21.714;2023-02-28T03:02:55;101511.19;;;1.08;71.34
43071;BME280;36278;47.952;21.714;2023-02-28T03:05:26;101511.91;;;1.16;70.37
43071;BME280;36278;47.952;21.714;2023-02-28T03:07:52;101490.34;;;1.05;70.96
43071;BME280;36278;47.952;21.714;2023-02-28T03:13:27;101499.69;;;1.18;69.88
43071;BME280;36278;47.952;21.714;2023-02-28T03:27:29;101495.84;;;0.91;71.69
43071;BME280;36278;47.952;21.714;2023-02-28T03:30:03;101499.31;;;0.89;71.52
43071;BME280;36278;47.952;21.714;2023-02-28T03:32:35;101488.03;;;0.88;70.83
43071;BME280;36278;47.952;21.714;2023-02-28T03:35:09;101492.59;;;0.77;72.04
43071;BME280;36278;47.952;21.714;2023-02-28T03:37:39;101501.16;;;0.85;71.88
43071;BME280;36278;47.952;21.714;2023-02-28T03:40:09;101508.06;;;0.86;71.29
43071;BME280;36278;47.952;21.714;2023-02-28T03:42:39;101515.81;;;0.92;71.67
43071;BME280;36278;47.952;21.714;2023-02-28T03:45:19;101508.91;;;0.88;71.06
43071;BME280;36278;47.952;21.714;2023-02-28T03:47:51;101511.34;;;0.97;71.18
43071;BME280;36278;47.952;21.714;2023-02-28T03:50:24;101515.84;;;0.91;71.39
43071;BME280;36278;47.952;21.714;2023-02-28T03:53:14;101506.44;;;0.82;72.04
43071;BME280;36278;47.952;21.714;2023-02-28T03:55:59;101512.56;;;0.78;72.65
43071;BME280;36278;47.952;21.714;2023-02-28T03:58:31;101505.53;;;0.83;72.20
43071;BME280;36278;47.952;21.714;2023-02-28T04:01:22;101499.56;;;0.76;71.79
43071;BME280;36278;47.952;21.714;2023-02-28T04:03:49;101499.63;;;0.70;72.97
43071;BME280;36278;47.952;21.714;2023-02-28T04:06:20;101504.78;;;0.76;72.00
43071;BME280;36278;47.952;21.714;2023-02-28T04:08:47;101499.72;;;0.66;72.72
43071;BME280;36278;47.952;21.714;2023-02-28T04:11:19;101502.19;;;0.75;71.99
43071;BME280;36278;47.952;21.714;2023-02-28T04:13:45;101511.03;;;0.65;72.59
43071;BME280;36278;47.952;21.714;2023-02-28T04:16:11;101510.41;;;0.47;73.04
43071;BME280;36278;47.952;21.714;2023-02-28T04:18:37;101503.53;;;0.45;73.35
43071;BME280;36278;47.952;21.714;2023-02-28T04:21:03;101513.22;;;0.35;74.50
43071;BME280;36278;47.952;21.714;2023-02-28T04:23:30;101509.78;;;0.33;74.65
43071;BME280;36278;47.952;21.714;2023-02-28T04:25:55;101508.94;;;0.31;74.74
43071;BME280;36278;47.952;21.714;2023-02-28T04:28:21;101513.31;;;0.29;74.83
43071;BME280;36278;47.952;21.714;2023-02-28T04:30:46;101501.25;;;0.22;75.57
43071;BME280;36278;47.952;21.714;2023-02-28T04:33:12;101502.97;;;0.23;75.46
43071;BME280;36278;47.952;21.714;2023-02-28T04:35:38;101507.22;;;0.30;75.51
43071;BME280;36278;47.952;21.714;2023-02-28T04:38:03;101510.53;;;0.40;75.15
43071;BME280;36278;47.952;21.714;2023-02-28T04:40:29;101514.88;;;0.39;75.18
43071;BME280;36278;47.952;21.714;2023-02-28T04:42:54;101518.31;;;0.44;74.52
43071;BME280;36278;47.952;21.714;2023-02-28T04:45:20;101518.28;;;0.46;74.85
43071;BME280;36278;47.952;21.714;2023-02-28T04:47:45;101512.31;;;0.38;74.56
43071;BME280;36278;47.952;21.714;2023-02-28T04:50:11;101527.94;;;0.38;75.08
43071;BME280;36278;47.952;21.714;2023-02-28T04:52:36;101524.44;;;0.40;74.91
43071;BME280;36278;47.952;21.714;2023-02-28T04:55:02;101522.72;;;0.38;75.36
43071;BME280;36278;47.952;21.714;2023-02-28T04:57:28;101533.88;;;0.47;75.22
43071;BME280;36278;47.952;21.714;2023-02-28T04:59:55;101533.94;;;0.44;75.02
43071;BME280;36278;47.952;21.714;2023-02-28T05:02:20;101524.22;;;0.54;74.39
43071;BME280;36278;47.952;21.714;2023-02-28T05:04:46;101532.03;;;0.57;74.53
43071;BME280;36278;47.952;21.714;2023-02-28T05:07:12;101531.97;;;0.60;74.59
43071;BME280;36278;47.952;21.714;2023-02-28T05:09:37;101528.53;;;0.56;74.13
43071;BME280;36278;47.952;21.714;2023-02-28T05:12:03;101532.13;;;0.49;74.32
43071;BME280;36278;47.952;21.714;2023-02-28T05:14:28;101535.47;;;0.59;74.34
43071;BME280;36278;47.952;21.714;2023-02-28T05:16:54;101521.47;;;0.63;74.07
43071;BME280;36278;47.952;21.714;2023-02-28T05:19:19;101533.47;;;0.76;73.91
43071;BME280;36278;47.952;21.714;2023-02-28T05:21:54;101537.84;;;0.73;72.95
43071;BME280;36278;47.952;21.714;2023-02-28T05:24:19;101542.94;;;0.80;73.24
43071;BME280;36278;47.952;21.714;2023-02-28T05:26:48;101532.56;;;0.77;73.60
43071;BME280;36278;47.952;21.714;2023-02-28T05:29:16;101537.63;;;0.87;72.87
43071;BME280;36278;47.952;21.714;2023-02-28T05:31:41;101547.16;;;0.91;72.61
43071;BME280;36278;47.952;21.714;2023-02-28T05:34:07;101548.19;;;0.79;72.46
43071;BME280;36278;47.952;21.714;2023-02-28T05:36:32;101551.72;;;0.76;73.07
43071;BME280;36278;47.952;21.714;2023-02-28T05:38:58;101553.25;;;0.88;72.62
43071;BME280;36278;47.952;21.714;2023-02-28T05:41:24;101543.84;;;0.78;73.05
43071;BME280;36278;47.952;21.714;2023-02-28T05:43:51;101561.38;;;0.70;72.88
43071;BME280;36278;47.952;21.714;2023-02-28T05:46:16;101550.06;;;0.71;73.49
43071;BME280;36278;47.952;21.714;2023-02-28T05:48:42;101564.44;;;0.95;73.00
43071;BME280;36278;47.952;21.714;2023-02-28T05:51:10;101567.00;;;0.99;72.64
43071;BME280;36278;47.952;21.714;2023-02-28T05:53:36;101562.56;;;1.04;72.30
43071;BME280;36278;47.952;21.714;2023-02-28T05:56:03;101554.84;;;0.97;72.54
43071;BME280;36278;47.952;21.714;2023-02-28T05:58:28;101561.81;;;0.96;72.16
43071;BME280;36278;47.952;21.714;2023-02-28T06:00:59;101568.84;;;0.93;72.73
43071;BME280;36278;47.952;21.714;2023-02-28T06:03:26;101561.81;;;0.96;72.35
43071;BME280;36278;47.952;21.714;2023-02-28T06:05:51;101564.53;;;0.90;72.29
43071;BME280;36278;47.952;21.714;2023-02-28T06:08:17;101564.50;;;0.93;72.82
43071;BME280;36278;47.952;21.714;2023-02-28T06:10:43;101552.25;;;0.97;72.37
43071;BME280;36278;47.952;21.714;2023-02-28T06:13:10;101551.44;;;0.93;73.32
43071;BME280;36278;47.952;21.714;2023-02-28T06:15:37;101548.94;;;0.87;73.09
43071;BME280;36278;47.952;21.714;2023-02-28T06:18:03;101540.97;;;0.95;73.87
43071;BME280;36278;47.952;21.714;2023-02-28T06:20:29;101549.41;;;1.10;72.52
43071;BME280;36278;47.952;21.714;2023-02-28T06:22:58;101550.22;;;1.16;72.86
43071;BME280;36278;47.952;21.714;2023-02-28T06:25:25;101543.03;;;1.27;71.82
43071;BME280;36278;47.952;21.714;2023-02-28T06:27:50;101549.94;;;1.31;71.15
43071;BME280;36278;47.952;21.714;2023-02-28T06:30:16;101552.72;;;1.20;72.12
43071;BME280;36278;47.952;21.714;2023-02-28T06:32:42;101545.59;;;1.30;70.78
43071;BME280;36278;47.952;21.714;2023-02-28T06:35:07;101551.81;;;1.23;72.08
43071;BME280;36278;47.952;21.714;2023-02-28T06:37:33;101550.91;;;1.25;72.13
43071;BME280;36278;47.952;21.714;2023-02-28T06:39:59;101548.28;;;1.25;71.38
43071;BME280;36278;47.952;21.714;2023-02-28T06:42:25;101550.91;;;1.25;71.49
43071;BME280;36278;47.952;21.714;2023-02-28T06:44:54;101536.09;;;1.26;71.76
43071;BME280;36278;47.952;21.714;2023-02-28T06:47:21;101538.34;;;1.46;70.98
43071;BME280;36278;47.952;21.714;2023-02-28T06:49:46;101534.75;;;1.51;71.16
43071;BME280;36278;47.952;21.714;2023-02-28T06:52:12;101536.38;;;1.58;70.36
43071;BME280;36278;47.952;21.714;2023-02-28T06:54:38;101533.22;;;1.41;71.50
43071;BME280;36278;47.952;21.714;2023-02-28T06:57:03;101529.59;;;1.48;70.83
43071;BME280;36278;47.952;21.714;2023-02-28T06:59:29;101535.88;;;1.39;71.12
43071;BME280;36278;47.952;21.714;2023-02-28T07:01:54;101531.47;;;1.42;71.45
43071;BME280;36278;47.952;21.714;2023-02-28T07:04:20;101542.66;;;1.48;71.31
43071;BME280;36278;47.952;21.714;2023-02-28T07:06:46;101546.00;;;1.56;71.29
43071;BME280;36278;47.952;21.714;2023-02-28T07:09:12;101544.34;;;1.51;71.44
43071;BME280;36278;47.952;21.714;2023-02-28T07:11:39;101536.25;;;1.64;70.47
43071;BME280;36278;47.952;21.714;2023-02-28T07:14:06;101552.94;;;1.57;71.15
43071;BME280;36278;47.952;21.714;2023-02-28T07:16:32;101553.91;;;1.52;71.34
43071;BME280;36278;47.952;21.714;2023-02-28T07:18:57;101556.97;;;1.74;70.57
43071;BME280;36278;47.952;21.714;2023-02-28T07:21:23;101559.28;;;1.89;69.85
43071;BME280;36278;47.952;21.714;2023-02-28T07:23:48;101555.81;;;1.87;70.05
43071;BME280;36278;47.952;21.714;2023-02-28T07:26:17;101564.63;;;1.83;70.13
43071;BME280;36278;47.952;21.714;2023-02-28T07:28:43;101561.69;;;2.00;69.22
43071;BME280;36278;47.952;21.714;2023-02-28T07:31:11;101560.53;;;2.11;68.69
43071;BME280;36278;47.952;21.714;2023-02-28T07:33:37;101567.69;;;2.03;69.28
43071;BME280;36278;47.952;21.714;2023-02-28T07:36:08;101570.03;;;2.17;68.13
43071;BME280;36278;47.952;21.714;2023-02-28T07:38:38;101557.28;;;2.42;67.05
43071;BME280;36278;47.952;21.714;2023-02-28T07:41:04;101566.06;;;2.39;67.57
43071;BME280;36278;47.952;21.714;2023-02-28T07:43:31;101564.22;;;2.43;66.79
43071;BME280;36278;47.952;21.714;2023-02-28T07:46:02;101567.28;;;2.23;68.26
43071;BME280;36278;47.952;21.714;2023-02-28T07:48:27;101570.63;;;2.30;67.63
43071;BME280;36278;47.952;21.714;2023-02-28T07:50:56;101572.59;;;2.18;67.61
43071;BME280;36278;47.952;21.714;2023-02-28T07:53:22;101572.41;;;2.28;68.76
43071;BME280;36278;47.952;21.714;2023-02-28T07:55:48;101580.97;;;2.34;67.21
43071;BME280;36278;47.952;21.714;2023-02-28T07:58:13;101577.09;;;2.53;66.78
43071;BME280;36278;47.952;21.714;2023-02-28T08:00:39;101577.25;;;2.46;68.03
43071;BME280;36278;47.952;21.714;2023-02-28T08:03:04;101580.34;;;2.63;67.62
43071;BME280;36278;47.952;21.714;2023-02-28T08:05:30;101573.63;;;2.51;67.21
43071;BME280;36278;47.952;21.714;2023-02-28T08:07:56;101561.28;;;2.58;67.56
43071;BME280;36278;47.952;21.714;2023-02-28T08:10:22;101577.56;;;2.71;67.44
43071;BME280;36278;47.952;21.714;2023-02-28T08:12:49;101570.53;;;2.73;67.24
43071;BME280;36278;47.952;21.714;2023-02-28T08:15:14;101572.88;;;2.85;66.03
43071;BME280;36278;47.952;21.714;2023-02-28T08:17:40;101575.44;;;2.87;66.20
43071;BME280;36278;47.952;21.714;2023-02-28T08:20:06;101579.97;;;2.80;66.03
43071;BME280;36278;47.952;21.714;2023-02-28T08:22:31;101577.97;;;2.90;65.64
43071;BME280;36278;47.952;21.714;2023-02-28T08:24:57;101584.63;;;3.04;65.79
43071;BME280;36278;47.952;21.714;2023-02-28T08:27:22;101584.34;;;3.15;65.34
43071;BME280;36278;47.952;21.714;2023-02-28T08:29:48;101586.44;;;3.36;64.59
43071;BME280;36278;47.952;21.714;2023-02-28T08:32:13;101585.88;;;3.24;64.28
43071;BME280;36278;47.952;21.714;2023-02-28T08:34:40;101577.25;;;3.20;65.19
43071;BME280;36278;47.952;21.714;2023-02-28T08:37:06;101575.34;;;3.25;65.09
43071;BME280;36278;47.952;21.714;2023-02-28T08:39:34;101575.44;;;3.22;64.75
43071;BME280;36278;47.952;21.714;2023-02-28T08:42:02;101577.97;;;3.25;65.76
43071;BME280;36278;47.952;21.714;2023-02-28T08:44:27;101577.72;;;3.36;64.44
43071;BME280;36278;47.952;21.714;2023-02-28T08:46:53;101581.28;;;3.32;65.46
43071;BME280;36278;47.952;21.714;2023-02-28T08:49:18;101571.03;;;3.58;64.50
43071;BME280;36278;47.952;21.714;2023-02-28T08:51:44;101571.22;;;3.51;64.45
43071;BME280;36278;47.952;21.714;2023-02-28T08:54:09;101583.94;;;3.64;63.94
43071;BME280;36278;47.952;21.714;2023-02-28T08:56:38;101579.69;;;3.60;64.15
43071;BME280;36278;47.952;21.714;2023-02-28T08:59:04;101576.63;;;3.45;64.27
43071;BME280;36278;47.952;21.714;2023-02-28T09:01:30;101589.66;;;3.46;63.63
43071;BME280;36278;47.952;21.714;2023-02-28T09:03:57;101587.72;;;3.54;64.35
43071;BME280;36278;47.952;21.714;2023-02-28T09:06:24;101583.13;;;3.62;64.32
43071;BME280;36278;47.952;21.714;2023-02-28T09:08:50;101585.69;;;3.64;63.97
43071;BME280;36278;47.952;21.714;2023-02-28T09:11:16;101572.31;;;3.42;63.87
43071;BME280;36278;47.952;21.714;2023-02-28T09:13:44;101586.94;;;3.51;64.43
43071;BME280;36278;47.952;21.714;2023-02-28T09:16:11;101585.75;;;3.62;64.81
43071;BME280;36278;47.952;21.714;2023-02-28T09:18:37;101576.94;;;3.65;63.62
43071;BME280;36278;47.952;21.714;2023-02-28T09:21:09;101588.00;;;3.76;64.27
43071;BME280;36278;47.952;21.714;2023-02-28T09:23:37;101586.41;;;3.71;64.15
43071;BME280;36278;47.952;21.714;2023-02-28T09:26:05;101590.84;;;4.00;63.35
43071;BME280;36278;47.952;21.714;2023-02-28T09:28:31;101578.44;;;3.75;63.63
43071;BME280;36278;47.952;21.714;2023-02-28T09:30:56;101581.50;;;3.89;63.81
43071;BME280;36278;47.952;21.714;2023-02-28T09:33:26;101592.13;;;3.85;64.43
43071;BME280;36278;47.952;21.714;2023-02-28T09:35:58;101587.66;;;3.88;64.00
43071;BME280;36278;47.952;21.714;2023-02-28T09:38:25;101586.47;;;4.00;63.88
43071;BME280;36278;47.952;21.714;2023-02-28T09:40:54;101580.00;;;4.12;63.08
43071;BME280;36278;47.952;21.714;2023-02-28T09:43:23;101574.84;;;4.09;62.97
43071;BME280;36278;47.952;21.714;2023-02-28T09:45:56;101580.16;;;4.06;63.26
43071;BME280;36278;47.952;21.714;2023-02-28T09:48:33;101586.47;;;4.30;63.46
43071;BME280;36278;47.952;21.714;2023-02-28T09:53:59;101587.28;;;4.61;62.59
43071;BME280;36278;47.952;21.714;2023-02-28T09:56:38;101570.19;;;4.76;61.55
43071;BME280;36278;47.952;21.714;2023-02-28T10:05:02;101586.69;;;4.79;61.36
43071;BME280;36278;47.952;21.714;2023-02-28T10:08:10;101583.03;;;4.85;61.39
43071;BME280;36278;47.952;21.714;2023-02-28T10:10:41;101581.88;;;4.94;61.04
43071;BME280;36278;47.952;21.714;2023-02-28T10:15:52;101573.28;;;5.42;59.22
43071;BME280;36278;47.952;21.714;2023-02-28T10:18:26;101577.63;;;5.43;59.80
43071;BME280;36278;47.952;21.714;2023-02-28T10:20:55;101588.66;;;5.52;59.57
43071;BME280;36278;47.952;21.714;2023-02-28T10:23:26;101579.41;;;5.67;59.08
43071;BME280;36278;47.952;21.714;2023-02-28T10:26:14;101572.56;;;5.63;59.23
43071;BME280;36278;47.952;21.714;2023-02-28T10:28:44;101579.47;;;5.66;58.37
43071;BME280;36278;47.952;21.714;2023-02-28T10:31:18;101574.78;;;5.74;58.36
43071;BME280;36278;47.952;21.714;2023-02-28T10:33:45;101568.47;;;5.79;58.06
43071;BME280;36278;47.952;21.714;2023-02-28T10:36:15;101573.41;;;5.63;58.92
43071;BME280;36278;47.952;21.714;2023-02-28T10:38:43;101562.97;;;5.85;58.35
43071;BME280;36278;47.952;21.714;2023-02-28T10:41:14;101552.63;;;5.81;59.17
43071;BME280;36278;47.952;21.714;2023-02-28T10:43:41;101556.31;;;5.75;58.71
43071;BME280;36278;47.952;21.714;2023-02-28T10:51:02;101548.22;;;6.06;58.57
43071;BME280;36278;47.952;21.714;2023-02-28T10:59:02;101541.25;;;6.51;56.57
43071;BME280;36278;47.952;21.714;2023-02-28T11:04:17;101539.16;;;6.59;57.01
43071;BME280;36278;47.952;21.714;2023-02-28T11:06:43;101524.47;;;6.75;55.59
43071;BME280;36278;47.952;21.714;2023-02-28T11:09:40;101520.06;;;6.75;55.64
43071;BME280;36278;47.952;21.714;2023-02-28T11:12:20;101528.00;;;6.96;55.41
43071;BME280;36278;47.952;21.714;2023-02-28T11:15:01;101521.00;;;7.17;54.98
43071;BME280;36278;47.952;21.714;2023-02-28T11:17:30;101525.72;;;7.29;54.30
43071;BME280;36278;47.952;21.714;2023-02-28T11:19:58;101522.56;;;7.21;55.02
43071;BME280;36278;47.952;21.714;2023-02-28T11:22:30;101518.47;;;6.93;55.81
43071;BME280;36278;47.952;21.714;2023-02-28T11:24:59;101517.84;;;7.09;55.45
43071;BME280;36278;47.952;21.714;2023-02-28T11:29:56;101512.09;;;7.19;56.04
43071;BME280;36278;47.952;21.714;2023-02-28T11:32:23;101510.38;;;7.18;54.99
43071;BME280;36278;47.952;21.714;2023-02-28T11:37:31;101509.41;;;7.00;55.39
43071;BME280;36278;47.952;21.714;2023-02-28T11:39:57;101500.78;;;7.17;54.57
43071;BME280;36278;47.952;21.714;2023-02-28T11:48:04;101500.94;;;7.74;54.04
43071;BME280;36278;47.952;21.714;2023-02-28T11:55:59;101500.72;;;7.78;53.53
43071;BME280;36278;47.952;21.714;2023-02-28T12:04:36;101500.69;;;7.59;54.79
43071;BME280;36278;47.952;21.714;2023-02-28T12:07:13;101499.34;;;7.70;54.21
43071;BME280;36278;47.952;21.714;2023-02-28T12:15:05;101501.34;;;7.44;54.60
43071;BME280;36278;47.952;21.714;2023-02-28T12:20:26;101492.78;;;7.78;53.86
43071;BME280;36278;47.952;21.714;2023-02-28T12:28:09;101471.25;;;7.87;55.23
43071;BME280;36278;47.952;21.714;2023-02-28T12:30:44;101468.56;;;7.89;54.61
43071;BME280;36278;47.952;21.714;2023-02-28T12:33:17;101473.97;;;7.86;55.11
43071;BME280;36278;47.952;21.714;2023-02-28T12:36:00;101464.09;;;7.91;55.05
43071;BME280;36278;47.952;21.714;2023-02-28T12:38:39;101472.41;;;8.01;54.40
43071;BME280;36278;47.952;21.714;2023-02-28T12:44:03;101471.28;;;8.06;54.65
43071;BME280;36278;47.952;21.714;2023-02-28T12:46:34;101466.56;;;8.13;53.87
43071;BME280;36278;47.952;21.714;2023-02-28T12:49:08;101472.56;;;8.17;53.97
43071;BME280;36278;47.952;21.714;2023-02-28T12:51:35;101473.78;;;8.09;54.42
43071;BME280;36278;47.952;21.714;2023-02-28T12:54:07;101477.19;;;8.11;54.33
43071;BME280;36278;47.952;21.714;2023-02-28T12:57:01;101464.28;;;8.24;54.57
43071;BME280;36278;47.952;21.714;2023-02-28T12:59:54;101460.84;;;8.22;54.18
43071;BME280;36278;47.952;21.714;2023-02-28T13:11:01;101459.22;;;7.82;55.27
43071;BME280;36278;47.952;21.714;2023-02-28T13:13:29;101461.56;;;7.69;55.41
43071;BME280;36278;47.952;21.714;2023-02-28T13:16:02;101457.06;;;7.71;55.54
43071;BME280;36278;47.952;21.714;2023-02-28T13:20:55;101451.78;;;7.71;56.65
43071;BME280;36278;47.952;21.714;2023-02-28T13:26:17;101451.44;;;7.60;55.35
43071;BME280;36278;47.952;21.714;2023-02-28T13:31:19;101459.91;;;7.07;57.36
43071;BME280;36278;47.952;21.714;2023-02-28T13:36:27;101450.41;;;7.23;59.03
43071;BME280;36278;47.952;21.714;2023-02-28T13:39:47;101449.38;;;7.27;57.34
43071;BME280;36278;47.952;21.714;2023-02-28T13:41:47;101444.88;;;7.29;57.65
43071;BME280;36278;47.952;21.714;2023-02-28T13:44:23;101447.59;;;7.28;57.86
43071;BME280;36278;47.952;21.714;2023-02-28T14:03:32;101452.53;;;7.15;58.46
43071;BME280;36278;47.952;21.714;2023-02-28T14:06:27;101448.84;;;7.19;59.35
43071;BME280;36278;47.952;21.714;2023-02-28T14:11:40;101451.50;;;7.19;58.72
43071;BME280;36278;47.952;21.714;2023-02-28T14:14:08;101447.41;;;7.12;59.27
43071;BME280;36278;47.952;21.714;2023-02-28T14:16:48;101444.63;;;7.15;58.65
43071;BME280;36278;47.952;21.714;2023-02-28T14:19:27;101449.84;;;7.17;59.02
43071;BME280;36278;47.952;21.714;2023-02-28T14:33:05;101434.69;;;7.61;58.14
43071;BME280;36278;47.952;21.714;2023-02-28T14:38:21;101432.47;;;7.71;57.29
43071;BME280;36278;47.952;21.714;2023-02-28T14:40:51;101431.78;;;7.67;57.85
43071;BME280;36278;47.952;21.714;2023-02-28T14:43:23;101429.41;;;7.61;57.68
43071;BME280;36278;47.952;21.714;2023-02-28T14:45:55;101440.31;;;7.53;58.27
43071;BME280;36278;47.952;21.714;2023-02-28T14:48:22;101430.41;;;7.58;58.19
43071;BME280;36278;47.952;21.714;2023-02-28T14:50:52;101432.63;;;7.68;57.53
43071;BME280;36278;47.952;21.714;2023-02-28T14:53:20;101431.53;;;7.53;57.94
43071;BME280;36278;47.952;21.714;2023-02-28T14:55:47;101430.75;;;7.51;57.77
43071;BME280;36278;47.952;21.714;2023-02-28T14:58:29;101434.44;;;7.47;58.59
43071;BME280;36278;47.952;21.714;2023-02-28T15:01:01;101433.56;;;7.27;59.25
43071;BME280;36278;47.952;21.714;2023-02-28T15:03:32;101434.00;;;7.37;59.25
43071;BME280;36278;47.952;21.714;2023-02-28T15:08:28;101441.13;;;7.35;59.77
43071;BME280;36278;47.952;21.714;2023-02-28T15:10:58;101447.03;;;7.40;58.80
43071;BME280;36278;47.952;21.714;2023-02-28T15:13:46;101441.91;;;7.37;59.68
43071;BME280;36278;47.952;21.714;2023-02-28T15:16:25;101436.47;;;7.21;59.25
43071;BME280;36278;47.952;21.714;2023-02-28T15:21:28;101441.06;;;7.16;59.36
43071;BME280;36278;47.952;21.714;2023-02-28T15:24:10;101435.78;;;7.16;59.41
43071;BME280;36278;47.952;21.714;2023-02-28T15:26:45;101438.44;;;7.16;59.81
43071;BME280;36278;47.952;21.714;2023-02-28T15:29:24;101437.53;;;7.17;60.46
43071;BME280;36278;47.952;21.714;2023-02-28T15:32:01;101431.53;;;7.14;60.25
43071;BME280;36278;47.952;21.714;2023-02-28T15:34:42;101431.03;;;7.24;60.01
43071;BME280;36278;47.952;21.714;2023-02-28T15:37:37;101429.75;;;7.14;60.66
43071;BME280;36278;47.952;21.714;2023-02-28T15:40:11;101415.94;;;7.09;60.49
43071;BME280;36278;47.952;21.714;2023-02-28T15:42:38;101421.72;;;7.17;60.69
43071;BME280;36278;47.952;21.714;2023-02-28T15:45:04;101420.84;;;6.96;60.97